sensor_id;sensor_type;location;lat;lon;timestamp;P1;durP1;ratioP1;P2;durP2;ratioP2
14007;SDS011;61651;45.508;12.232;2022-09-27T00:01:45;3.67;;;3.38;;
14007;SDS011;61651;45.508;12.232;2022-09-27T00:04:47;4.18;;;3.78;;
14007;SDS011;61651;45.508;12.232;2022-09-27T00:07:49;4.13;;;3.83;;
14007;SDS011;61651;45.508;12.232;2022-09-27T00:10:58;4.93;;;4.53;;
14007;SDS011;61651;45.508;12.232;2022-09-27T00:14:00;4.85;;;4.45;;
14007;SDS011;61651;45.508;12.232;2022-09-27T00:17:03;4.68;;;4.28;;
14007;SDS011;61651;45.508;12.232;2022-09-27T00:20:05;5.18;;;4.68;;
14007;SDS011;61651;45.508;12.232;2022-09-27T00:23:08;5.07;;;4.30;;
14007;SDS011;61651;45.508;12.232;2022-09-27T00:26:12;4.22;;;3.83;;
14007;SDS011;61651;45.508;12.232;2022-09-27T00:29:14;4.25;;;3.85;;
14007;SDS011;61651;45.508;12.232;2022-09-27T00:32:17;4.72;;;4.32;;
14007;SDS011;61651;45.508;12.232;2022-09-27T00:35:20;4.35;;;3.90;;
14007;SDS011;61651;45.508;12.232;2022-09-27T00:38:22;4.25;;;3.92;;
14007;SDS011;61651;45.508;12.232;2022-09-27T00:41:26;4.20;;;3.83;;
14007;SDS011;61651;45.508;12.232;2022-09-27T00:48:04;3.50;;;3.17;;
14007;SDS011;61651;45.508;12.232;2022-09-27T00:51:06;3.20;;;3.00;;
14007;SDS011;61651;45.508;12.232;2022-09-27T00:54:10;4.07;;;3.70;;
14007;SDS011;61651;45.508;12.232;2022-09-27T00:57:17;3.78;;;3.47;;
14007;SDS011;61651;45.508;12.232;2022-09-27T01:00:21;3.70;;;3.40;;
14007;SDS011;61651;45.508;12.232;2022-09-27T01:03:25;2.85;;;2.65;;
14007;SDS011;61651;45.508;12.232;2022-09-27T01:06:32;2.85;;;2.60;;
14007;SDS011;61651;45.508;12.232;2022-09-27T01:09:34;2.55;;;2.35;;
14007;SDS011;61651;45.508;12.232;2022-09-27T01:12:41;2.60;;;2.38;;
14007;SDS011;61651;45.508;12.232;2022-09-27T01:15:55;3.63;;;2.50;;
14007;SDS011;61651;45.508;12.232;2022-09-27T01:19:04;2.90;;;2.65;;
14007;SDS011;61651;45.508;12.232;2022-09-27T01:22:15;2.95;;;2.70;;
14007;SDS011;61651;45.508;12.232;2022-09-27T01:25:32;2.50;;;2.30;;
14007;SDS011;61651;45.508;12.232;2022-09-27T01:28:53;2.38;;;2.17;;
14007;SDS011;61651;45.508;12.232;2022-09-27T01:32:03;2.47;;;2.28;;
14007;SDS011;61651;45.508;12.232;2022-09-27T01:35:12;2.88;;;2.53;;
14007;SDS011;61651;45.508;12.232;2022-09-27T01:38:22;2.75;;;2.55;;
14007;SDS011;61651;45.508;12.232;2022-09-27T01:41:32;2.70;;;2.50;;
14007;SDS011;61651;45.508;12.232;2022-09-27T01:44:42;2.70;;;2.50;;
14007;SDS011;61651;45.508;12.232;2022-09-27T01:47:49;3.30;;;3.00;;
14007;SDS011;61651;45.508;12.232;2022-09-27T01:50:54;3.08;;;2.88;;
14007;SDS011;61651;45.508;12.232;2022-09-27T01:54:00;3.28;;;3.00;;
14007;SDS011;61651;45.508;12.232;2022-09-27T01:57:05;3.47;;;3.13;;
14007;SDS011;61651;45.508;12.232;2022-09-27T02:00:10;2.88;;;2.67;;
14007;SDS011;61651;45.508;12.232;2022-09-27T02:03:14;3.15;;;2.95;;
14007;SDS011;61651;45.508;12.232;2022-09-27T02:06:21;3.00;;;2.80;;
14007;SDS011;61651;45.508;12.232;2022-09-27T02:09:28;3.13;;;2.83;;
14007;SDS011;61651;45.508;12.232;2022-09-27T02:12:38;3.00;;;2.78;;
14007;SDS011;61651;45.508;12.232;2022-09-27T02:15:47;3.10;;;2.90;;
14007;SDS011;61651;45.508;12.232;2022-09-27T02:19:00;3.72;;;3.42;;
14007;SDS011;61651;45.508;12.232;2022-09-27T02:22:11;3.92;;;3.60;;
14007;SDS011;61651;45.508;12.232;2022-09-27T02:25:18;3.65;;;3.35;;
14007;SDS011;61651;45.508;12.232;2022-09-27T02:28:24;3.67;;;3.38;;
14007;SDS011;61651;45.508;12.232;2022-09-27T02:31:30;3.88;;;3.55;;
14007;SDS011;61651;45.508;12.232;2022-09-27T02:34:34;4.20;;;3.88;;
14007;SDS011;61651;45.508;12.232;2022-09-27T02:37:38;5.78;;;5.18;;
14007;SDS011;61651;45.508;12.232;2022-09-27T02:40:42;5.35;;;4.85;;
14007;SDS011;61651;45.508;12.232;2022-09-27T02:43:46;4.00;;;3.70;;
14007;SDS011;61651;45.508;12.232;2022-09-27T02:46:57;3.50;;;3.20;;
14007;SDS011;61651;45.508;12.232;2022-09-27T02:50:20;3.50;;;3.20;;
14007;SDS011;61651;45.508;12.232;2022-09-27T02:53:38;3.95;;;3.65;;
14007;SDS011;61651;45.508;12.232;2022-09-27T02:56:49;4.75;;;3.50;;
14007;SDS011;61651;45.508;12.232;2022-09-27T03:00:03;4.03;;;3.63;;
14007;SDS011;61651;45.508;12.232;2022-09-27T03:03:09;3.65;;;3.35;;
14007;SDS011;61651;45.508;12.232;2022-09-27T03:06:16;3.92;;;3.63;;
14007;SDS011;61651;45.508;12.232;2022-09-27T03:09:21;4.32;;;3.92;;
14007;SDS011;61651;45.508;12.232;2022-09-27T03:12:25;4.43;;;4.03;;
14007;SDS011;61651;45.508;12.232;2022-09-27T03:15:27;3.85;;;3.55;;
14007;SDS011;61651;45.508;12.232;2022-09-27T03:18:29;5.15;;;4.65;;
14007;SDS011;61651;45.508;12.232;2022-09-27T03:21:32;4.82;;;4.40;;
14007;SDS011;61651;45.508;12.232;2022-09-27T03:24:34;4.85;;;4.30;;
14007;SDS011;61651;45.508;12.232;2022-09-27T03:27:36;4.88;;;4.47;;
14007;SDS011;61651;45.508;12.232;2022-09-27T03:30:38;4.43;;;4.00;;
14007;SDS011;61651;45.508;12.232;2022-09-27T03:33:41;4.35;;;3.95;;
14007;SDS011;61651;45.508;12.232;2022-09-27T03:36:44;4.85;;;4.38;;
14007;SDS011;61651;45.508;12.232;2022-09-27T03:39:46;4.85;;;4.45;;
14007;SDS011;61651;45.508;12.232;2022-09-27T03:42:48;5.40;;;4.57;;
14007;SDS011;61651;45.508;12.232;2022-09-27T03:45:50;4.57;;;4.18;;
14007;SDS011;61651;45.508;12.232;2022-09-27T03:48:52;4.88;;;4.47;;
14007;SDS011;61651;45.508;12.232;2022-09-27T03:51:56;4.97;;;4.57;;
14007;SDS011;61651;45.508;12.232;2022-09-27T03:54:58;4.35;;;3.97;;
14007;SDS011;61651;45.508;12.232;2022-09-27T03:58:00;4.88;;;4.45;;
14007;SDS011;61651;45.508;12.232;2022-09-27T04:01:02;5.70;;;4.63;;
14007;SDS011;61651;45.508;12.232;2022-09-27T04:04:04;4.53;;;4.13;;
14007;SDS011;61651;45.508;12.232;2022-09-27T04:07:07;5.10;;;4.10;;
14007;SDS011;61651;45.508;12.232;2022-09-27T04:10:10;5.03;;;4.53;;
14007;SDS011;61651;45.508;12.232;2022-09-27T04:13:12;4.95;;;4.45;;
14007;SDS011;61651;45.508;12.232;2022-09-27T04:16:14;5.18;;;4.60;;
14007;SDS011;61651;45.508;12.232;2022-09-27T04:19:16;4.70;;;4.30;;
14007;SDS011;61651;45.508;12.232;2022-09-27T04:22:19;5.20;;;4.70;;
14007;SDS011;61651;45.508;12.232;2022-09-27T04:25:22;6.22;;;4.55;;
14007;SDS011;61651;45.508;12.232;2022-09-27T04:28:25;5.35;;;4.85;;
14007;SDS011;61651;45.508;12.232;2022-09-27T04:31:27;6.80;;;4.15;;
14007;SDS011;61651;45.508;12.232;2022-09-27T04:34:28;5.10;;;4.63;;
14007;SDS011;61651;45.508;12.232;2022-09-27T04:37:46;4.80;;;4.35;;
14007;SDS011;61651;45.508;12.232;2022-09-27T04:40:48;4.63;;;4.22;;
14007;SDS011;61651;45.508;12.232;2022-09-27T04:43:50;5.00;;;4.60;;
14007;SDS011;61651;45.508;12.232;2022-09-27T04:46:53;4.93;;;4.45;;
14007;SDS011;61651;45.508;12.232;2022-09-27T04:49:55;5.20;;;4.70;;
14007;SDS011;61651;45.508;12.232;2022-09-27T04:52:58;4.90;;;4.50;;
14007;SDS011;61651;45.508;12.232;2022-09-27T04:56:00;4.30;;;3.90;;
14007;SDS011;61651;45.508;12.232;2022-09-27T04:59:05;4.25;;;3.90;;
14007;SDS011;61651;45.508;12.232;2022-09-27T05:02:07;4.53;;;4.13;;
14007;SDS011;61651;45.508;12.232;2022-09-27T05:05:09;4.30;;;3.90;;
14007;SDS011;61651;45.508;12.232;2022-09-27T05:08:12;4.00;;;3.70;;
14007;SDS011;61651;45.508;12.232;2022-09-27T05:11:14;3.72;;;3.42;;
14007;SDS011;61651;45.508;12.232;2022-09-27T05:14:16;3.65;;;3.35;;
14007;SDS011;61651;45.508;12.232;2022-09-27T05:17:19;3.38;;;3.08;;
14007;SDS011;61651;45.508;12.232;2022-09-27T05:20:22;3.63;;;3.05;;
14007;SDS011;61651;45.508;12.232;2022-09-27T05:23:26;3.35;;;2.90;;
14007;SDS011;61651;45.508;12.232;2022-09-27T05:26:28;3.17;;;2.90;;
14007;SDS011;61651;45.508;12.232;2022-09-27T05:29:30;2.90;;;2.67;;
14007;SDS011;61651;45.508;12.232;2022-09-27T05:32:32;6.63;;;6.03;;
14007;SDS011;61651;45.508;12.232;2022-09-27T05:35:34;5.20;;;4.70;;
14007;SDS011;61651;45.508;12.232;2022-09-27T05:38:38;2.50;;;2.30;;
14007;SDS011;61651;45.508;12.232;2022-09-27T05:41:40;2.90;;;2.70;;
14007;SDS011;61651;45.508;12.232;2022-09-27T05:44:42;2.50;;;2.30;;
14007;SDS011;61651;45.508;12.232;2022-09-27T05:47:52;3.00;;;2.65;;
14007;SDS011;61651;45.508;12.232;2022-09-27T05:50:55;2.53;;;2.10;;
14007;SDS011;61651;45.508;12.232;2022-09-27T05:53:59;2.47;;;2.20;;
14007;SDS011;61651;45.508;12.232;2022-09-27T05:57:01;1.90;;;1.70;;
14007;SDS011;61651;45.508;12.232;2022-09-27T06:00:05;2.35;;;2.20;;
14007;SDS011;61651;45.508;12.232;2022-09-27T06:03:09;2.17;;;1.90;;
14007;SDS011;61651;45.508;12.232;2022-09-27T06:06:12;1.80;;;1.70;;
14007;SDS011;61651;45.508;12.232;2022-09-27T06:09:16;2.25;;;1.80;;
14007;SDS011;61651;45.508;12.232;2022-09-27T06:12:18;2.05;;;1.77;;
14007;SDS011;61651;45.508;12.232;2022-09-27T06:15:20;1.80;;;1.70;;
14007;SDS011;61651;45.508;12.232;2022-09-27T06:18:22;1.73;;;1.63;;
14007;SDS011;61651;45.508;12.232;2022-09-27T06:21:25;1.70;;;1.60;;
14007;SDS011;61651;45.508;12.232;2022-09-27T06:24:29;1.75;;;1.63;;
14007;SDS011;61651;45.508;12.232;2022-09-27T06:27:31;2.20;;;2.00;;
14007;SDS011;61651;45.508;12.232;2022-09-27T06:30:36;2.17;;;1.83;;
14007;SDS011;61651;45.508;12.232;2022-09-27T06:33:39;1.83;;;1.73;;
14007;SDS011;61651;45.508;12.232;2022-09-27T06:36:41;2.10;;;1.90;;
14007;SDS011;61651;45.508;12.232;2022-09-27T06:39:44;1.90;;;1.80;;
14007;SDS011;61651;45.508;12.232;2022-09-27T06:42:48;2.17;;;1.98;;
14007;SDS011;61651;45.508;12.232;2022-09-27T06:45:50;2.00;;;1.85;;
14007;SDS011;61651;45.508;12.232;2022-09-27T06:48:52;1.90;;;1.70;;
14007;SDS011;61651;45.508;12.232;2022-09-27T06:51:55;2.90;;;2.20;;
14007;SDS011;61651;45.508;12.232;2022-09-27T06:54:58;2.08;;;1.92;;
14007;SDS011;61651;45.508;12.232;2022-09-27T06:58:01;2.90;;;2.55;;
14007;SDS011;61651;45.508;12.232;2022-09-27T07:01:29;2.40;;;2.20;;
14007;SDS011;61651;45.508;12.232;2022-09-27T07:04:31;2.50;;;2.30;;
14007;SDS011;61651;45.508;12.232;2022-09-27T07:07:33;2.50;;;2.30;;
14007;SDS011;61651;45.508;12.232;2022-09-27T07:10:37;2.80;;;2.40;;
14007;SDS011;61651;45.508;12.232;2022-09-27T07:13:40;2.95;;;2.65;;
14007;SDS011;61651;45.508;12.232;2022-09-27T07:16:43;2.40;;;2.20;;
14007;SDS011;61651;45.508;12.232;2022-09-27T07:19:46;3.88;;;2.20;;
14007;SDS011;61651;45.508;12.232;2022-09-27T07:22:47;3.78;;;2.22;;
14007;SDS011;61651;45.508;12.232;2022-09-27T07:25:51;2.70;;;2.35;;
14007;SDS011;61651;45.508;12.232;2022-09-27T07:28:53;2.70;;;2.40;;
14007;SDS011;61651;45.508;12.232;2022-09-27T07:31:55;3.72;;;2.60;;
14007;SDS011;61651;45.508;12.232;2022-09-27T07:34:58;5.55;;;2.60;;
14007;SDS011;61651;45.508;12.232;2022-09-27T07:38:00;3.63;;;2.45;;
14007;SDS011;61651;45.508;12.232;2022-09-27T07:41:07;3.00;;;2.80;;
14007;SDS011;61651;45.508;12.232;2022-09-27T07:44:12;2.75;;;2.55;;
14007;SDS011;61651;45.508;12.232;2022-09-27T07:47:15;3.63;;;2.60;;
14007;SDS011;61651;45.508;12.232;2022-09-27T07:50:19;3.55;;;2.42;;
14007;SDS011;61651;45.508;12.232;2022-09-27T07:53:21;2.70;;;2.22;;
14007;SDS011;61651;45.508;12.232;2022-09-27T07:56:24;2.78;;;2.25;;
14007;SDS011;61651;45.508;12.232;2022-09-27T07:59:26;2.33;;;2.13;;
14007;SDS011;61651;45.508;12.232;2022-09-27T08:02:28;2.63;;;2.38;;
14007;SDS011;61651;45.508;12.232;2022-09-27T08:05:32;3.08;;;2.10;;
14007;SDS011;61651;45.508;12.232;2022-09-27T08:08:35;2.20;;;2.03;;
14007;SDS011;61651;45.508;12.232;2022-09-27T08:11:38;2.83;;;2.53;;
14007;SDS011;61651;45.508;12.232;2022-09-27T08:14:40;2.85;;;2.65;;
14007;SDS011;61651;45.508;12.232;2022-09-27T08:17:42;2.33;;;2.13;;
14007;SDS011;61651;45.508;12.232;2022-09-27T08:20:44;2.70;;;2.50;;
14007;SDS011;61651;45.508;12.232;2022-09-27T08:23:46;3.08;;;2.78;;
14007;SDS011;61651;45.508;12.232;2022-09-27T08:26:50;2.13;;;2.00;;
14007;SDS011;61651;45.508;12.232;2022-09-27T08:29:52;2.30;;;2.10;;
14007;SDS011;61651;45.508;12.232;2022-09-27T08:32:54;2.70;;;2.50;;
14007;SDS011;61651;45.508;12.232;2022-09-27T08:35:56;2.50;;;2.30;;
14007;SDS011;61651;45.508;12.232;2022-09-27T08:38:58;1.95;;;1.83;;
14007;SDS011;61651;45.508;12.232;2022-09-27T08:42:04;2.28;;;1.60;;
14007;SDS011;61651;45.508;12.232;2022-09-27T08:45:14;3.00;;;2.10;;
14007;SDS011;61651;45.508;12.232;2022-09-27T08:48:19;1.40;;;1.30;;
14007;SDS011;61651;45.508;12.232;2022-09-27T08:51:24;1.30;;;1.20;;
14007;SDS011;61651;45.508;12.232;2022-09-27T08:54:29;1.63;;;1.52;;
14007;SDS011;61651;45.508;12.232;2022-09-27T08:57:34;1.48;;;1.38;;
14007;SDS011;61651;45.508;12.232;2022-09-27T09:00:37;2.72;;;1.80;;
14007;SDS011;61651;45.508;12.232;2022-09-27T09:03:42;1.77;;;1.65;;
14007;SDS011;61651;45.508;12.232;2022-09-27T09:06:48;1.52;;;1.42;;
14007;SDS011;61651;45.508;12.232;2022-09-27T09:10:01;1.75;;;1.40;;
14007;SDS011;61651;45.508;12.232;2022-09-27T09:13:09;1.60;;;1.45;;
14007;SDS011;61651;45.508;12.232;2022-09-27T09:16:21;1.90;;;1.50;;
14007;SDS011;61651;45.508;12.232;2022-09-27T09:19:35;2.55;;;1.67;;
14007;SDS011;61651;45.508;12.232;2022-09-27T09:22:49;1.73;;;1.63;;
14007;SDS011;61651;45.508;12.232;2022-09-27T09:26:03;2.10;;;1.80;;
14007;SDS011;61651;45.508;12.232;2022-09-27T09:29:15;2.05;;;1.85;;
14007;SDS011;61651;45.508;12.232;2022-09-27T09:32:29;2.00;;;1.80;;
14007;SDS011;61651;45.508;12.232;2022-09-27T09:35:39;1.88;;;1.67;;
14007;SDS011;61651;45.508;12.232;2022-09-27T09:38:45;1.60;;;1.50;;
14007;SDS011;61651;45.508;12.232;2022-09-27T09:41:56;1.88;;;1.67;;
14007;SDS011;61651;45.508;12.232;2022-09-27T09:45:11;2.10;;;1.90;;
14007;SDS011;61651;45.508;12.232;2022-09-27T09:48:20;1.98;;;1.75;;
14007;SDS011;61651;45.508;12.232;2022-09-27T09:51:28;1.52;;;1.42;;
14007;SDS011;61651;45.508;12.232;2022-09-27T09:54:35;4.90;;;1.83;;
14007;SDS011;61651;45.508;12.232;2022-09-27T09:57:42;2.03;;;1.75;;
14007;SDS011;61651;45.508;12.232;2022-09-27T10:00:55;3.33;;;2.10;;
14007;SDS011;61651;45.508;12.232;2022-09-27T10:04:01;2.72;;;2.05;;
14007;SDS011;61651;45.508;12.232;2022-09-27T10:07:03;1.75;;;1.65;;
14007;SDS011;61651;45.508;12.232;2022-09-27T10:10:06;2.03;;;1.92;;
14007;SDS011;61651;45.508;12.232;2022-09-27T10:13:13;2.85;;;2.45;;
14007;SDS011;61651;45.508;12.232;2022-09-27T10:16:18;2.90;;;2.38;;
14007;SDS011;61651;45.508;12.232;2022-09-27T10:19:22;3.15;;;2.50;;
14007;SDS011;61651;45.508;12.232;2022-09-27T10:22:31;2.55;;;2.30;;
14007;SDS011;61651;45.508;12.232;2022-09-27T10:25:44;2.97;;;2.63;;
14007;SDS011;61651;45.508;12.232;2022-09-27T10:28:48;2.10;;;2.00;;
14007;SDS011;61651;45.508;12.232;2022-09-27T10:31:52;2.55;;;2.35;;
14007;SDS011;61651;45.508;12.232;2022-09-27T10:34:54;3.60;;;2.67;;
14007;SDS011;61651;45.508;12.232;2022-09-27T10:37:58;2.72;;;2.28;;
14007;SDS011;61651;45.508;12.232;2022-09-27T10:41:22;2.88;;;2.63;;
14007;SDS011;61651;45.508;12.232;2022-09-27T10:44:28;2.63;;;2.30;;
14007;SDS011;61651;45.508;12.232;2022-09-27T10:47:32;3.30;;;2.55;;
14007;SDS011;61651;45.508;12.232;2022-09-27T10:50:36;2.85;;;2.65;;
14007;SDS011;61651;45.508;12.232;2022-09-27T10:53:43;3.50;;;2.90;;
14007;SDS011;61651;45.508;12.232;2022-09-27T10:56:52;3.97;;;3.58;;
14007;SDS011;61651;45.508;12.232;2022-09-27T10:59:57;4.97;;;3.13;;
14007;SDS011;61651;45.508;12.232;2022-09-27T11:03:02;3.88;;;3.10;;
14007;SDS011;61651;45.508;12.232;2022-09-27T11:06:18;3.65;;;3.10;;
14007;SDS011;61651;45.508;12.232;2022-09-27T11:09:27;5.18;;;3.40;;
14007;SDS011;61651;45.508;12.232;2022-09-27T11:12:30;3.65;;;3.08;;
14007;SDS011;61651;45.508;12.232;2022-09-27T11:15:36;3.70;;;2.70;;
14007;SDS011;61651;45.508;12.232;2022-09-27T11:19:04;3.38;;;2.97;;
14007;SDS011;61651;45.508;12.232;2022-09-27T11:22:15;3.40;;;2.47;;
14007;SDS011;61651;45.508;12.232;2022-09-27T11:25:36;3.10;;;2.70;;
14007;SDS011;61651;45.508;12.232;2022-09-27T11:28:46;2.88;;;2.28;;
14007;SDS011;61651;45.508;12.232;2022-09-27T11:32:03;3.22;;;2.90;;
14007;SDS011;61651;45.508;12.232;2022-09-27T11:35:20;3.22;;;2.92;;
14007;SDS011;61651;45.508;12.232;2022-09-27T11:38:35;5.43;;;3.00;;
14007;SDS011;61651;45.508;12.232;2022-09-27T11:41:53;3.58;;;2.88;;
14007;SDS011;61651;45.508;12.232;2022-09-27T11:45:14;3.40;;;3.10;;
14007;SDS011;61651;45.508;12.232;2022-09-27T11:48:28;4.10;;;3.20;;
14007;SDS011;61651;45.508;12.232;2022-09-27T11:52:02;3.87;;;3.30;;
14007;SDS011;61651;45.508;12.232;2022-09-27T11:55:19;3.53;;;3.13;;
14007;SDS011;61651;45.508;12.232;2022-09-27T11:58:29;4.93;;;3.55;;
14007;SDS011;61651;45.508;12.232;2022-09-27T12:01:38;3.85;;;3.45;;
14007;SDS011;61651;45.508;12.232;2022-09-27T12:04:53;4.93;;;3.75;;
14007;SDS011;61651;45.508;12.232;2022-09-27T12:08:11;4.45;;;3.90;;
14007;SDS011;61651;45.508;12.232;2022-09-27T12:11:24;4.20;;;3.72;;
14007;SDS011;61651;45.508;12.232;2022-09-27T12:14:32;4.65;;;4.25;;
14007;SDS011;61651;45.508;12.232;2022-09-27T12:17:38;8.43;;;5.10;;
14007;SDS011;61651;45.508;12.232;2022-09-27T12:20:44;4.55;;;3.78;;
14007;SDS011;61651;45.508;12.232;2022-09-27T12:23:48;4.10;;;3.70;;
14007;SDS011;61651;45.508;12.232;2022-09-27T12:26:52;4.65;;;3.83;;
14007;SDS011;61651;45.508;12.232;2022-09-27T12:29:57;4.32;;;3.70;;
14007;SDS011;61651;45.508;12.232;2022-09-27T12:33:03;6.25;;;4.55;;
14007;SDS011;61651;45.508;12.232;2022-09-27T12:36:13;7.00;;;5.07;;
14007;SDS011;61651;45.508;12.232;2022-09-27T12:39:18;5.13;;;4.63;;
14007;SDS011;61651;45.508;12.232;2022-09-27T12:42:24;4.90;;;4.20;;
14007;SDS011;61651;45.508;12.232;2022-09-27T12:45:34;5.88;;;4.18;;
14007;SDS011;61651;45.508;12.232;2022-09-27T12:48:44;4.50;;;3.95;;
14007;SDS011;61651;45.508;12.232;2022-09-27T12:51:53;4.78;;;3.92;;
14007;SDS011;61651;45.508;12.232;2022-09-27T12:55:10;5.03;;;4.00;;
14007;SDS011;61651;45.508;12.232;2022-09-27T12:58:34;4.43;;;3.38;;
14007;SDS011;61651;45.508;12.232;2022-09-27T13:02:02;5.10;;;4.30;;
14007;SDS011;61651;45.508;12.232;2022-09-27T13:05:24;5.80;;;4.00;;
14007;SDS011;61651;45.508;12.232;2022-09-27T13:08:58;5.30;;;4.35;;
14007;SDS011;61651;45.508;12.232;2022-09-27T13:12:34;4.18;;;3.78;;
14007;SDS011;61651;45.508;12.232;2022-09-27T13:15:38;3.78;;;3.38;;
14007;SDS011;61651;45.508;12.232;2022-09-27T13:18:54;3.88;;;3.47;;
14007;SDS011;61651;45.508;12.232;2022-09-27T13:22:00;4.32;;;3.55;;
14007;SDS011;61651;45.508;12.232;2022-09-27T13:32:21;13.32;;;3.63;;
14007;SDS011;61651;45.508;12.232;2022-09-27T13:35:24;3.53;;;3.10;;
14007;SDS011;61651;45.508;12.232;2022-09-27T13:38:27;3.90;;;3.47;;
14007;SDS011;61651;45.508;12.232;2022-09-27T13:41:30;5.75;;;3.25;;
14007;SDS011;61651;45.508;12.232;2022-09-27T13:44:44;5.28;;;4.22;;
14007;SDS011;61651;45.508;12.232;2022-09-27T13:48:07;5.90;;;3.88;;
14007;SDS011;61651;45.508;12.232;2022-09-27T13:51:23;5.78;;;3.40;;
14007;SDS011;61651;45.508;12.232;2022-09-27T13:54:35;4.35;;;3.75;;
14007;SDS011;61651;45.508;12.232;2022-09-27T13:57:44;3.78;;;3.25;;
14007;SDS011;61651;45.508;12.232;2022-09-27T14:00:53;5.47;;;3.72;;
14007;SDS011;61651;45.508;12.232;2022-09-27T14:03:59;3.28;;;3.00;;
14007;SDS011;61651;45.508;12.232;2022-09-27T14:07:05;3.97;;;3.17;;
14007;SDS011;61651;45.508;12.232;2022-09-27T14:10:13;3.92;;;3.22;;
14007;SDS011;61651;45.508;12.232;2022-09-27T14:13:19;3.65;;;2.90;;
14007;SDS011;61651;45.508;12.232;2022-09-27T14:16:25;9.57;;;3.15;;
14007;SDS011;61651;45.508;12.232;2022-09-27T14:19:34;4.95;;;3.70;;
14007;SDS011;61651;45.508;12.232;2022-09-27T14:22:40;5.20;;;3.35;;
14007;SDS011;61651;45.508;12.232;2022-09-27T14:25:45;6.43;;;4.18;;
14007;SDS011;61651;45.508;12.232;2022-09-27T14:28:48;4.43;;;3.05;;
14007;SDS011;61651;45.508;12.232;2022-09-27T14:32:02;3.15;;;2.83;;
14007;SDS011;61651;45.508;12.232;2022-09-27T14:35:06;5.72;;;3.15;;
14007;SDS011;61651;45.508;12.232;2022-09-27T14:38:31;4.72;;;3.42;;
14007;SDS011;61651;45.508;12.232;2022-09-27T14:41:34;3.78;;;3.42;;
14007;SDS011;61651;45.508;12.232;2022-09-27T14:44:37;4.25;;;3.25;;
14007;SDS011;61651;45.508;12.232;2022-09-27T14:47:46;7.72;;;3.28;;
14007;SDS011;61651;45.508;12.232;2022-09-27T14:50:52;2.80;;;2.58;;
14007;SDS011;61651;45.508;12.232;2022-09-27T14:53:59;4.00;;;3.13;;
14007;SDS011;61651;45.508;12.232;2022-09-27T14:57:05;4.25;;;3.13;;
14007;SDS011;61651;45.508;12.232;2022-09-27T15:00:15;4.05;;;3.08;;
14007;SDS011;61651;45.508;12.232;2022-09-27T15:03:22;5.25;;;3.85;;
14007;SDS011;61651;45.508;12.232;2022-09-27T15:06:29;4.43;;;3.05;;
14007;SDS011;61651;45.508;12.232;2022-09-27T15:09:31;3.45;;;2.90;;
14007;SDS011;61651;45.508;12.232;2022-09-27T15:12:33;3.63;;;3.33;;
14007;SDS011;61651;45.508;12.232;2022-09-27T15:15:36;5.85;;;3.22;;
14007;SDS011;61651;45.508;12.232;2022-09-27T15:18:41;3.60;;;2.60;;
14007;SDS011;61651;45.508;12.232;2022-09-27T15:21:44;5.28;;;2.83;;
14007;SDS011;61651;45.508;12.232;2022-09-27T15:24:46;3.90;;;2.70;;
14007;SDS011;61651;45.508;12.232;2022-09-27T15:27:50;3.10;;;2.22;;
14007;SDS011;61651;45.508;12.232;2022-09-27T15:30:55;2.40;;;2.20;;
14007;SDS011;61651;45.508;12.232;2022-09-27T15:34:00;3.00;;;2.67;;
14007;SDS011;61651;45.508;12.232;2022-09-27T15:37:04;2.58;;;2.35;;
14007;SDS011;61651;45.508;12.232;2022-09-27T15:40:26;3.00;;;2.28;;
14007;SDS011;61651;45.508;12.232;2022-09-27T15:44:18;3.50;;;2.38;;
14007;SDS011;61651;45.508;12.232;2022-09-27T15:51:36;2.80;;;2.42;;
14007;SDS011;61651;45.508;12.232;2022-09-27T15:54:39;2.88;;;2.65;;
14007;SDS011;61651;45.508;12.232;2022-09-27T15:57:42;5.30;;;2.35;;
14007;SDS011;61651;45.508;12.232;2022-09-27T16:00:52;2.63;;;2.08;;
14007;SDS011;61651;45.508;12.232;2022-09-27T16:03:58;3.83;;;2.15;;
14007;SDS011;61651;45.508;12.232;2022-09-27T16:07:04;1.92;;;1.73;;
14007;SDS011;61651;45.508;12.232;2022-09-27T16:10:10;5.25;;;2.80;;
14007;SDS011;61651;45.508;12.232;2022-09-27T16:13:17;2.13;;;1.92;;
14007;SDS011;61651;45.508;12.232;2022-09-27T16:16:19;5.88;;;2.15;;
14007;SDS011;61651;45.508;12.232;2022-09-27T16:19:22;4.32;;;2.47;;
14007;SDS011;61651;45.508;12.232;2022-09-27T16:22:27;2.58;;;2.38;;
14007;SDS011;61651;45.508;12.232;2022-09-27T16:25:32;2.92;;;2.33;;
14007;SDS011;61651;45.508;12.232;2022-09-27T16:28:37;2.40;;;2.20;;
14007;SDS011;61651;45.508;12.232;2022-09-27T16:31:39;3.45;;;2.38;;
14007;SDS011;61651;45.508;12.232;2022-09-27T16:34:41;3.58;;;2.10;;
14007;SDS011;61651;45.508;12.232;2022-09-27T16:37:45;4.70;;;2.60;;
14007;SDS011;61651;45.508;12.232;2022-09-27T16:40:47;2.33;;;2.10;;
14007;SDS011;61651;45.508;12.232;2022-09-27T16:43:49;3.88;;;2.17;;
14007;SDS011;61651;45.508;12.232;2022-09-27T16:46:51;3.08;;;2.72;;
14007;SDS011;61651;45.508;12.232;2022-09-27T16:49:53;2.53;;;2.33;;
14007;SDS011;61651;45.508;12.232;2022-09-27T16:53:14;4.00;;;2.45;;
14007;SDS011;61651;45.508;12.232;2022-09-27T16:56:16;2.65;;;1.90;;
14007;SDS011;61651;45.508;12.232;2022-09-27T16:59:18;4.40;;;1.70;;
14007;SDS011;61651;45.508;12.232;2022-09-27T17:02:20;3.05;;;1.30;;
14007;SDS011;61651;45.508;12.232;2022-09-27T17:05:23;1.30;;;1.20;;
14007;SDS011;61651;45.508;12.232;2022-09-27T17:08:26;1.85;;;1.70;;
14007;SDS011;61651;45.508;12.232;2022-09-27T17:11:28;3.45;;;1.77;;
14007;SDS011;61651;45.508;12.232;2022-09-27T17:14:31;2.47;;;1.50;;
14007;SDS011;61651;45.508;12.232;2022-09-27T17:17:32;1.63;;;1.40;;
14007;SDS011;61651;45.508;12.232;2022-09-27T17:20:34;1.55;;;1.23;;
14007;SDS011;61651;45.508;12.232;2022-09-27T17:23:38;1.98;;;1.52;;
14007;SDS011;61651;45.508;12.232;2022-09-27T17:26:40;3.22;;;1.60;;
14007;SDS011;61651;45.508;12.232;2022-09-27T17:29:42;2.15;;;1.42;;
14007;SDS011;61651;45.508;12.232;2022-09-27T17:32:44;4.18;;;1.65;;
14007;SDS011;61651;45.508;12.232;2022-09-27T17:35:46;3.20;;;1.73;;
14007;SDS011;61651;45.508;12.232;2022-09-27T17:38:50;3.42;;;1.95;;
14007;SDS011;61651;45.508;12.232;2022-09-27T17:41:52;2.28;;;1.80;;
14007;SDS011;61651;45.508;12.232;2022-09-27T18:13:33;1.10;;;1.00;;
14007;SDS011;61651;45.508;12.232;2022-09-27T18:16:40;1.27;;;1.17;;
14007;SDS011;61651;45.508;12.232;2022-09-27T18:19:45;0.95;;;0.95;;
14007;SDS011;61651;45.508;12.232;2022-09-27T18:22:47;1.08;;;0.93;;
14007;SDS011;61651;45.508;12.232;2022-09-27T18:25:52;0.93;;;0.93;;
14007;SDS011;61651;45.508;12.232;2022-09-27T18:29:00;1.25;;;1.13;;
14007;SDS011;61651;45.508;12.232;2022-09-27T18:32:06;1.45;;;1.23;;
14007;SDS011;61651;45.508;12.232;2022-09-27T18:35:09;1.65;;;1.10;;
14007;SDS011;61651;45.508;12.232;2022-09-27T18:38:11;1.40;;;0.90;;
14007;SDS011;61651;45.508;12.232;2022-09-27T18:41:16;1.60;;;1.02;;
14007;SDS011;61651;45.508;12.232;2022-09-27T18:44:21;1.38;;;1.25;;
14007;SDS011;61651;45.508;12.232;2022-09-27T18:47:24;2.67;;;1.70;;
14007;SDS011;61651;45.508;12.232;2022-09-27T18:50:33;4.68;;;1.98;;
14007;SDS011;61651;45.508;12.232;2022-09-27T18:53:37;1.38;;;1.27;;
14007;SDS011;61651;45.508;12.232;2022-09-27T18:56:39;1.88;;;1.40;;
14007;SDS011;61651;45.508;12.232;2022-09-27T18:59:43;1.42;;;1.33;;
14007;SDS011;61651;45.508;12.232;2022-09-27T19:02:49;2.35;;;1.27;;
14007;SDS011;61651;45.508;12.232;2022-09-27T19:05:55;1.67;;;1.10;;
14007;SDS011;61651;45.508;12.232;2022-09-27T19:08:59;1.40;;;1.15;;